SWR2086 LSZH-LPPT
Flight info
| Callsign | SWR2086 |
|---|---|
| Flight time | 2h 23m |
| Altitude | 37000 |
| Route | VEBIT T50 ROTOS Z669 ULMES DCT VADAR DCT NINTU DCT MEBAK DCT REPSI DCT LERGA DCT MINSO DCT NARAK DCT AGN DCT MAQAB DCT TIVLI N869 ZAR Z245 CJN N975 CCS DCT UPULO |
| Aircraft | B77W/H-SDE1E2E3FGHIJ2J3J4J5M1RWXY/LB1D1 |
Departure
| Time | 2026-04-26 14:17 |
|---|---|
| Airport | Zürich Airport (LSZH) |
Arrival
| Time | 2026-04-26 16:40 |
|---|---|
| Airport | Lisbon Humberto Delgado Airport (LPPT) |
| Time | Latitude | Longitude | Altitude | Speed | Heading |
|---|---|---|---|---|---|
| 2026-04-26 13:18 | 47.45172 | 8.55894 | 1392 ft | 0 kts | 186° |
| 2026-04-26 13:59 | 47.45176 | 8.55895 | 1392 ft | 2 kts | 190° |
| 2026-04-26 13:59 | 47.45191 | 8.55900 | 1392 ft | 2 kts | 191° |
| 2026-04-26 14:00 | 47.45233 | 8.55919 | 1392 ft | 2 kts | 221° |
| 2026-04-26 14:00 | 47.45243 | 8.55935 | 1392 ft | 2 kts | 237° |
| 2026-04-26 14:00 | 47.45248 | 8.55948 | 1392 ft | 2 kts | 247° |
| 2026-04-26 14:01 | 47.45252 | 8.55967 | 1392 ft | 0 kts | 262° |
| 2026-04-26 14:01 | 47.45250 | 8.55940 | 1392 ft | 6 kts | 268° |
| 2026-04-26 14:01 | 47.45253 | 8.55903 | 1392 ft | 1 kts | 278° |
| 2026-04-26 14:01 | 47.45253 | 8.55902 | 1392 ft | 0 kts | 278° |
| 2026-04-26 14:04 | 47.45253 | 8.55898 | 1392 ft | 1 kts | 278° |
| 2026-04-26 14:04 | 47.45256 | 8.55861 | 1392 ft | 4 kts | 276° |
| 2026-04-26 14:04 | 47.45260 | 8.55798 | 1392 ft | 7 kts | 275° |
| 2026-04-26 14:05 | 47.45265 | 8.55711 | 1392 ft | 9 kts | 276° |
| 2026-04-26 14:05 | 47.45274 | 8.55605 | 1392 ft | 11 kts | 278° |
| 2026-04-26 14:05 | 47.45303 | 8.55490 | 1392 ft | 12 kts | 302° |
| 2026-04-26 14:05 | 47.45369 | 8.55394 | 1392 ft | 14 kts | 329° |
| 2026-04-26 14:06 | 47.45461 | 8.55328 | 1392 ft | 15 kts | 334° |
| 2026-04-26 14:06 | 47.45558 | 8.55260 | 1392 ft | 14 kts | 336° |
| 2026-04-26 14:06 | 47.45645 | 8.55201 | 1392 ft | 12 kts | 335° |
| 2026-04-26 14:06 | 47.45678 | 8.55178 | 1392 ft | 0 kts | 335° |
| 2026-04-26 14:07 | 47.45690 | 8.55169 | 1392 ft | 3 kts | 335° |
| 2026-04-26 14:07 | 47.45727 | 8.55144 | 1392 ft | 7 kts | 334° |
| 2026-04-26 14:08 | 47.45786 | 8.55101 | 1392 ft | 11 kts | 335° |
| 2026-04-26 14:08 | 47.45863 | 8.55048 | 1392 ft | 10 kts | 335° |
| 2026-04-26 14:08 | 47.45921 | 8.55008 | 1392 ft | 8 kts | 335° |
| 2026-04-26 14:08 | 47.45971 | 8.54972 | 1391 ft | 9 kts | 335° |
| 2026-04-26 14:09 | 47.46045 | 8.54921 | 1390 ft | 14 kts | 335° |
| 2026-04-26 14:09 | 47.46152 | 8.54848 | 1389 ft | 19 kts | 335° |
| 2026-04-26 14:09 | 47.46283 | 8.54757 | 1389 ft | 22 kts | 335° |
| 2026-04-26 14:09 | 47.46431 | 8.54657 | 1389 ft | 25 kts | 336° |
| 2026-04-26 14:10 | 47.46601 | 8.54540 | 1388 ft | 28 kts | 335° |
| 2026-04-26 14:10 | 47.46777 | 8.54423 | 1388 ft | 26 kts | 337° |
| 2026-04-26 14:10 | 47.46933 | 8.54325 | 1388 ft | 23 kts | 336° |
| 2026-04-26 14:10 | 47.47071 | 8.54231 | 1388 ft | 20 kts | 335° |
| 2026-04-26 14:11 | 47.47298 | 8.54074 | 1388 ft | 15 kts | 335° |
| 2026-04-26 14:11 | 47.47389 | 8.54011 | 1389 ft | 12 kts | 335° |
| 2026-04-26 14:11 | 47.47462 | 8.53962 | 1390 ft | 11 kts | 335° |
| 2026-04-26 14:12 | 47.47525 | 8.53919 | 1391 ft | 8 kts | 335° |
| 2026-04-26 14:12 | 47.47568 | 8.53881 | 1392 ft | 6 kts | 320° |
| 2026-04-26 14:12 | 47.47593 | 8.53830 | 1393 ft | 5 kts | 295° |
| 2026-04-26 14:12 | 47.47597 | 8.53817 | 1393 ft | 0 kts | 288° |
| 2026-04-26 14:15 | 47.47598 | 8.53809 | 1393 ft | 3 kts | 282° |
| 2026-04-26 14:15 | 47.47597 | 8.53742 | 1394 ft | 10 kts | 259° |
| 2026-04-26 14:16 | 47.47567 | 8.53643 | 1394 ft | 8 kts | 228° |
| 2026-04-26 14:16 | 47.47523 | 8.53621 | 1394 ft | 5 kts | 166° |
| 2026-04-26 14:16 | 47.47477 | 8.53659 | 1394 ft | 19 kts | 153° |
| 2026-04-26 14:16 | 47.47145 | 8.53888 | 1388 ft | 85 kts | 155° |
| 2026-04-26 14:17 | 47.46413 | 8.54388 | 1389 ft | 144 kts | 155° |
| 2026-04-26 14:17 | 47.45343 | 8.55119 | 1411 ft | 190 kts | 152° |
| 2026-04-26 14:17 | 47.44125 | 8.56010 | 1831 ft | 198 kts | 151° |
| 2026-04-26 14:17 | 47.43008 | 8.57073 | 2597 ft | 194 kts | 131° |
| 2026-04-26 14:18 | 47.42358 | 8.58850 | 3057 ft | 205 kts | 98° |
| 2026-04-26 14:18 | 47.42475 | 8.60901 | 3676 ft | 205 kts | 65° |
| 2026-04-26 14:18 | 47.43339 | 8.62511 | 4397 ft | 203 kts | 32° |
| 2026-04-26 14:18 | 47.44627 | 8.63156 | 4880 ft | 201 kts | 4° |
| 2026-04-26 14:19 | 47.46022 | 8.62757 | 4983 ft | 208 kts | 333° |
| 2026-04-26 14:19 | 47.47051 | 8.61305 | 4995 ft | 212 kts | 300° |
| 2026-04-26 14:19 | 47.47390 | 8.59178 | 4989 ft | 217 kts | 265° |
| 2026-04-26 14:19 | 47.46995 | 8.57018 | 5009 ft | 219 kts | 256° |
| 2026-04-26 14:20 | 47.46780 | 8.54809 | 5009 ft | 219 kts | 267° |
| 2026-04-26 14:20 | 47.46482 | 8.52633 | 4977 ft | 217 kts | 244° |
| 2026-04-26 14:20 | 47.45712 | 8.50681 | 5001 ft | 220 kts | 239° |
| 2026-04-26 14:20 | 47.44910 | 8.48761 | 5012 ft | 223 kts | 239° |
| 2026-04-26 14:21 | 47.44069 | 8.46752 | 5112 ft | 241 kts | 239° |
| 2026-04-26 14:21 | 47.43151 | 8.44560 | 5257 ft | 259 kts | 239° |
| 2026-04-26 14:21 | 47.42171 | 8.42222 | 5464 ft | 275 kts | 239° |
| 2026-04-26 14:21 | 47.41159 | 8.39812 | 5981 ft | 280 kts | 239° |
| 2026-04-26 14:22 | 47.40136 | 8.37376 | 6592 ft | 281 kts | 239° |
| 2026-04-26 14:22 | 47.39103 | 8.34922 | 7196 ft | 282 kts | 238° |
| 2026-04-26 14:22 | 47.38129 | 8.32429 | 7769 ft | 284 kts | 243° |
| 2026-04-26 14:22 | 47.37240 | 8.29829 | 8353 ft | 284 kts | 243° |
| 2026-04-26 14:23 | 47.36345 | 8.27249 | 8937 ft | 285 kts | 243° |
| 2026-04-26 14:23 | 47.35430 | 8.24658 | 9483 ft | 286 kts | 242° |
| 2026-04-26 14:23 | 47.34507 | 8.22061 | 10023 ft | 288 kts | 243° |
| 2026-04-26 14:23 | 47.33575 | 8.19440 | 10450 ft | 294 kts | 243° |
| 2026-04-26 14:24 | 47.32597 | 8.16691 | 10624 ft | 311 kts | 243° |
| 2026-04-26 14:24 | 47.31577 | 8.13831 | 10817 ft | 327 kts | 243° |
| 2026-04-26 14:24 | 47.30489 | 8.10770 | 11042 ft | 342 kts | 243° |
| 2026-04-26 14:24 | 47.29357 | 8.07585 | 11287 ft | 357 kts | 243° |
| 2026-04-26 14:25 | 47.28180 | 8.04279 | 11543 ft | 372 kts | 243° |
| 2026-04-26 14:25 | 47.26974 | 8.00867 | 11960 ft | 382 kts | 245° |
| 2026-04-26 14:25 | 47.25925 | 7.97279 | 12596 ft | 386 kts | 248° |
| 2026-04-26 14:25 | 47.24912 | 7.93642 | 13321 ft | 389 kts | 248° |
| 2026-04-26 14:26 | 47.23893 | 7.89988 | 14083 ft | 391 kts | 249° |
| 2026-04-26 14:26 | 47.22843 | 7.86234 | 14883 ft | 395 kts | 249° |
| 2026-04-26 14:26 | 47.21802 | 7.82522 | 15681 ft | 399 kts | 249° |
| 2026-04-26 14:26 | 47.20751 | 7.78777 | 16469 ft | 402 kts | 249° |
| 2026-04-26 14:27 | 47.19664 | 7.74953 | 17264 ft | 406 kts | 246° |
| 2026-04-26 14:27 | 47.18291 | 7.71341 | 18005 ft | 411 kts | 237° |
| 2026-04-26 14:27 | 47.16573 | 7.67996 | 18747 ft | 416 kts | 233° |
| 2026-04-26 14:27 | 47.14780 | 7.64674 | 19461 ft | 420 kts | 233° |
| 2026-04-26 14:28 | 47.12970 | 7.61329 | 20177 ft | 424 kts | 233° |
| 2026-04-26 14:28 | 47.11118 | 7.57907 | 20883 ft | 428 kts | 233° |
| 2026-04-26 14:28 | 47.09272 | 7.54501 | 21546 ft | 432 kts | 233° |
| 2026-04-26 14:28 | 47.07407 | 7.51062 | 22211 ft | 436 kts | 233° |
| 2026-04-26 14:29 | 47.05512 | 7.47572 | 22850 ft | 441 kts | 233° |
| 2026-04-26 14:29 | 47.03596 | 7.44046 | 23452 ft | 445 kts | 233° |
| 2026-04-26 14:29 | 47.01656 | 7.40484 | 24045 ft | 450 kts | 233° |
| 2026-04-26 14:29 | 46.99680 | 7.36873 | 24658 ft | 454 kts | 233° |
| 2026-04-26 14:30 | 46.97705 | 7.33269 | 25216 ft | 459 kts | 233° |
| 2026-04-26 14:30 | 46.95706 | 7.29627 | 25813 ft | 462 kts | 233° |
| 2026-04-26 14:30 | 46.93701 | 7.25972 | 26393 ft | 465 kts | 233° |
| 2026-04-26 14:30 | 46.91673 | 7.22271 | 26941 ft | 469 kts | 233° |
| 2026-04-26 14:31 | 46.89640 | 7.18566 | 27457 ft | 473 kts | 233° |
| 2026-04-26 14:31 | 46.87568 | 7.14797 | 27959 ft | 477 kts | 233° |
| 2026-04-26 14:31 | 46.85501 | 7.11040 | 28444 ft | 481 kts | 233° |
| 2026-04-26 14:31 | 46.83420 | 7.07264 | 28931 ft | 485 kts | 233° |
| 2026-04-26 14:32 | 46.81294 | 7.03413 | 29462 ft | 487 kts | 233° |
| 2026-04-26 14:32 | 46.79226 | 6.99671 | 30076 ft | 488 kts | 233° |
| 2026-04-26 14:32 | 46.77081 | 6.95794 | 30791 ft | 486 kts | 233° |
| 2026-04-26 14:32 | 46.74981 | 6.92007 | 31557 ft | 482 kts | 233° |
| 2026-04-26 14:33 | 46.72896 | 6.88251 | 32318 ft | 477 kts | 233° |
| 2026-04-26 14:33 | 46.70829 | 6.84532 | 33013 ft | 473 kts | 233° |
| 2026-04-26 14:33 | 46.68774 | 6.80838 | 33570 ft | 471 kts | 233° |
| 2026-04-26 14:33 | 46.66713 | 6.77139 | 34109 ft | 469 kts | 233° |
| 2026-04-26 14:34 | 46.64840 | 6.73276 | 34560 ft | 466 kts | 240° |
| 2026-04-26 14:34 | 46.63160 | 6.69270 | 34976 ft | 465 kts | 241° |
| 2026-04-26 14:34 | 46.61482 | 6.65229 | 35175 ft | 467 kts | 241° |
| 2026-04-26 14:35 | 46.58138 | 6.57199 | 35182 ft | 467 kts | 240° |
| 2026-04-26 14:35 | 46.54758 | 6.49125 | 35171 ft | 468 kts | 241° |
| 2026-04-26 14:36 | 46.51387 | 6.41094 | 35173 ft | 466 kts | 241° |
| 2026-04-26 14:36 | 46.48022 | 6.33103 | 35183 ft | 469 kts | 240° |
| 2026-04-26 14:37 | 46.44681 | 6.25197 | 35188 ft | 468 kts | 240° |
| 2026-04-26 14:37 | 46.41301 | 6.17219 | 35181 ft | 469 kts | 240° |
| 2026-04-26 14:38 | 46.37921 | 6.09268 | 35173 ft | 469 kts | 240° |
| 2026-04-26 14:38 | 46.34555 | 6.01373 | 35166 ft | 469 kts | 240° |
| 2026-04-26 14:39 | 46.31128 | 5.93354 | 35168 ft | 471 kts | 240° |
| 2026-04-26 14:39 | 46.27689 | 5.85335 | 35166 ft | 470 kts | 240° |
| 2026-04-26 14:40 | 46.24252 | 5.77340 | 35165 ft | 472 kts | 240° |
| 2026-04-26 14:40 | 46.20786 | 5.69302 | 35168 ft | 471 kts | 240° |
| 2026-04-26 14:41 | 46.17316 | 5.61279 | 35164 ft | 475 kts | 240° |
| 2026-04-26 14:41 | 46.13816 | 5.53257 | 35157 ft | 475 kts | 238° |
| 2026-04-26 14:42 | 46.10066 | 5.45459 | 35161 ft | 476 kts | 238° |
| 2026-04-26 14:42 | 46.06278 | 5.37626 | 35150 ft | 478 kts | 237° |
| 2026-04-26 14:43 | 46.02641 | 5.30103 | 35149 ft | 480 kts | 237° |
| 2026-04-26 14:43 | 45.98919 | 5.22412 | 35144 ft | 481 kts | 237° |
| 2026-04-26 14:44 | 45.95096 | 5.14527 | 35146 ft | 481 kts | 237° |
| 2026-04-26 14:44 | 45.91271 | 5.06656 | 35141 ft | 483 kts | 237° |
| 2026-04-26 14:45 | 45.87520 | 4.98956 | 35141 ft | 483 kts | 237° |
| 2026-04-26 14:45 | 45.83793 | 4.91326 | 35140 ft | 484 kts | 237° |
| 2026-04-26 14:46 | 45.79936 | 4.83450 | 35147 ft | 482 kts | 237° |
| 2026-04-26 14:46 | 45.76089 | 4.75616 | 35142 ft | 482 kts | 237° |
| 2026-04-26 14:47 | 45.72242 | 4.67803 | 35144 ft | 483 kts | 237° |
| 2026-04-26 14:47 | 45.68386 | 4.59993 | 35148 ft | 482 kts | 237° |
| 2026-04-26 14:48 | 45.64534 | 4.52210 | 35149 ft | 484 kts | 237° |
| 2026-04-26 14:48 | 45.60663 | 4.44408 | 35162 ft | 482 kts | 237° |
| 2026-04-26 14:49 | 45.56787 | 4.36619 | 35167 ft | 482 kts | 237° |
| 2026-04-26 14:49 | 45.52914 | 4.28858 | 35169 ft | 484 kts | 237° |
| 2026-04-26 14:50 | 45.49015 | 4.21069 | 35162 ft | 484 kts | 237° |
| 2026-04-26 14:50 | 45.45100 | 4.13274 | 35174 ft | 487 kts | 236° |
| 2026-04-26 14:51 | 45.41156 | 4.05446 | 35179 ft | 486 kts | 237° |
| 2026-04-26 14:51 | 45.37214 | 3.97638 | 35188 ft | 487 kts | 237° |
| 2026-04-26 14:52 | 45.33290 | 3.89891 | 35200 ft | 486 kts | 237° |
| 2026-04-26 14:52 | 45.29333 | 3.82100 | 35185 ft | 487 kts | 237° |
| 2026-04-26 14:53 | 45.25364 | 3.74303 | 35201 ft | 488 kts | 237° |
| 2026-04-26 14:53 | 45.21493 | 3.66451 | 35198 ft | 487 kts | 238° |
| 2026-04-26 14:54 | 45.17636 | 3.58609 | 35196 ft | 487 kts | 238° |
| 2026-04-26 14:54 | 45.13738 | 3.50714 | 35190 ft | 487 kts | 238° |
| 2026-04-26 14:55 | 45.09856 | 3.42879 | 35184 ft | 487 kts | 238° |
| 2026-04-26 14:55 | 45.05969 | 3.35057 | 35180 ft | 487 kts | 238° |
| 2026-04-26 14:56 | 45.02082 | 3.27260 | 35191 ft | 487 kts | 237° |
| 2026-04-26 14:56 | 44.98179 | 3.19450 | 35201 ft | 487 kts | 238° |
| 2026-04-26 14:57 | 44.94260 | 3.11631 | 35189 ft | 487 kts | 237° |
| 2026-04-26 14:57 | 44.90346 | 3.03844 | 35180 ft | 488 kts | 237° |
| 2026-04-26 14:58 | 44.86443 | 2.96100 | 35166 ft | 488 kts | 238° |
| 2026-04-26 14:58 | 44.82622 | 2.88272 | 35168 ft | 486 kts | 240° |
| 2026-04-26 14:59 | 44.79279 | 2.80941 | 35158 ft | 487 kts | 240° |
| 2026-04-26 14:59 | 44.75635 | 2.73002 | 35155 ft | 485 kts | 240° |
| 2026-04-26 15:00 | 44.71965 | 2.65045 | 35147 ft | 485 kts | 240° |
| 2026-04-26 15:00 | 44.68283 | 2.57099 | 35140 ft | 484 kts | 240° |
| 2026-04-26 15:01 | 44.64616 | 2.49213 | 35135 ft | 485 kts | 240° |
| 2026-04-26 15:01 | 44.60915 | 2.41278 | 35130 ft | 485 kts | 240° |
| 2026-04-26 15:02 | 44.57309 | 2.33572 | 35127 ft | 485 kts | 239° |
| 2026-04-26 15:02 | 44.53627 | 2.25725 | 35129 ft | 484 kts | 239° |
| 2026-04-26 15:03 | 44.49947 | 2.17904 | 35135 ft | 483 kts | 239° |
| 2026-04-26 15:03 | 44.46263 | 2.10095 | 35134 ft | 484 kts | 239° |
| 2026-04-26 15:04 | 44.42533 | 2.02212 | 35133 ft | 484 kts | 239° |
| 2026-04-26 15:04 | 44.38819 | 1.94382 | 35134 ft | 485 kts | 239° |
| 2026-04-26 15:05 | 44.35120 | 1.86605 | 35135 ft | 484 kts | 239° |
| 2026-04-26 15:05 | 44.31388 | 1.78781 | 35133 ft | 484 kts | 239° |
| 2026-04-26 15:06 | 44.27690 | 1.70951 | 35137 ft | 484 kts | 240° |
| 2026-04-26 15:06 | 44.24088 | 1.63076 | 35132 ft | 484 kts | 240° |
| 2026-04-26 15:07 | 44.18653 | 1.51252 | 35129 ft | 485 kts | 240° |
| 2026-04-26 15:07 | 44.14994 | 1.43329 | 35128 ft | 485 kts | 240° |
| 2026-04-26 15:08 | 44.11346 | 1.35455 | 35130 ft | 487 kts | 240° |
| 2026-04-26 15:08 | 44.07753 | 1.27722 | 35127 ft | 487 kts | 239° |
| 2026-04-26 15:09 | 44.04120 | 1.19925 | 35126 ft | 488 kts | 239° |
| 2026-04-26 15:09 | 44.00447 | 1.12067 | 35128 ft | 486 kts | 239° |
| 2026-04-26 15:10 | 43.97394 | 1.05549 | 35129 ft | 485 kts | 239° |
| 2026-04-26 15:10 | 43.93101 | 0.96409 | 35132 ft | 487 kts | 239° |
| 2026-04-26 15:11 | 43.89343 | 0.88659 | 35126 ft | 487 kts | 233° |
| 2026-04-26 15:11 | 43.84596 | 0.82095 | 35131 ft | 491 kts | 224° |
| 2026-04-26 15:12 | 43.79507 | 0.75794 | 35133 ft | 489 kts | 224° |
| 2026-04-26 15:12 | 43.74417 | 0.69514 | 35134 ft | 489 kts | 224° |
| 2026-04-26 15:13 | 43.69364 | 0.63297 | 35137 ft | 487 kts | 224° |
| 2026-04-26 15:13 | 43.64308 | 0.57089 | 35138 ft | 488 kts | 223° |
| 2026-04-26 15:14 | 43.59233 | 0.50875 | 35141 ft | 487 kts | 223° |
| 2026-04-26 15:14 | 43.54163 | 0.44682 | 35142 ft | 488 kts | 223° |
| 2026-04-26 15:15 | 43.49079 | 0.38487 | 35144 ft | 486 kts | 223° |
| 2026-04-26 15:15 | 43.44117 | 0.32453 | 35151 ft | 486 kts | 223° |
| 2026-04-26 15:16 | 43.39037 | 0.26292 | 35153 ft | 486 kts | 223° |
| 2026-04-26 15:16 | 43.33972 | 0.20165 | 35154 ft | 486 kts | 222° |
| 2026-04-26 15:17 | 43.31451 | 0.17120 | 35264 ft | 487 kts | 222° |
| 2026-04-26 15:17 | 43.29733 | 0.15048 | 35089 ft | 487 kts | 222° |
| 2026-04-26 15:17 | 43.23848 | 0.07961 | 35164 ft | 488 kts | 222° |
| 2026-04-26 15:18 | 43.18748 | 0.01835 | 35171 ft | 486 kts | 222° |
| 2026-04-26 15:18 | 43.13657 | -0.04267 | 35177 ft | 486 kts | 222° |
| 2026-04-26 15:19 | 43.08606 | -0.10307 | 35189 ft | 485 kts | 222° |
| 2026-04-26 15:19 | 43.03531 | -0.16362 | 35200 ft | 485 kts | 222° |
| 2026-04-26 15:20 | 42.98458 | -0.22400 | 35205 ft | 484 kts | 222° |
| 2026-04-26 15:20 | 42.93372 | -0.28441 | 35215 ft | 485 kts | 222° |
| 2026-04-26 15:21 | 42.88291 | -0.34461 | 35207 ft | 484 kts | 222° |
| 2026-04-26 15:21 | 42.83230 | -0.40435 | 35202 ft | 486 kts | 220° |
| 2026-04-26 15:22 | 42.77478 | -0.45181 | 35194 ft | 486 kts | 203° |
| 2026-04-26 15:22 | 42.71223 | -0.48545 | 35199 ft | 486 kts | 202° |
| 2026-04-26 15:23 | 42.64901 | -0.51877 | 35190 ft | 485 kts | 202° |
| 2026-04-26 15:23 | 42.58595 | -0.55190 | 35178 ft | 486 kts | 202° |
| 2026-04-26 15:24 | 42.52302 | -0.58487 | 35166 ft | 485 kts | 202° |
| 2026-04-26 15:24 | 42.46029 | -0.61767 | 35161 ft | 485 kts | 202° |
| 2026-04-26 15:25 | 42.40799 | -0.64495 | 35154 ft | 486 kts | 202° |
| 2026-04-26 15:25 | 42.33523 | -0.68282 | 35135 ft | 485 kts | 201° |
| 2026-04-26 15:26 | 42.27244 | -0.71542 | 35119 ft | 486 kts | 201° |
| 2026-04-26 15:26 | 42.20957 | -0.74799 | 35106 ft | 485 kts | 201° |
| 2026-04-26 15:27 | 42.14649 | -0.78060 | 35097 ft | 485 kts | 201° |
| 2026-04-26 15:27 | 42.08356 | -0.81307 | 35094 ft | 485 kts | 201° |
| 2026-04-26 15:28 | 42.02077 | -0.84540 | 35091 ft | 484 kts | 201° |
| 2026-04-26 15:28 | 41.95798 | -0.87765 | 35091 ft | 484 kts | 201° |
| 2026-04-26 15:29 | 41.89581 | -0.90952 | 35095 ft | 484 kts | 201° |
| 2026-04-26 15:30 | 41.77032 | -0.97364 | 35086 ft | 483 kts | 201° |
| 2026-04-26 15:30 | 41.70772 | -1.00552 | 35091 ft | 483 kts | 201° |
| 2026-04-26 15:31 | 41.62203 | -1.07415 | 35093 ft | 481 kts | 223° |
| 2026-04-26 15:32 | 41.55607 | -1.15370 | 35097 ft | 479 kts | 223° |
| 2026-04-26 15:32 | 41.49863 | -1.22294 | 35097 ft | 479 kts | 223° |
| 2026-04-26 15:33 | 41.44907 | -1.28251 | 35106 ft | 479 kts | 223° |
| 2026-04-26 15:33 | 41.39977 | -1.34161 | 35124 ft | 476 kts | 223° |
| 2026-04-26 15:34 | 41.35080 | -1.40019 | 35140 ft | 477 kts | 223° |
| 2026-04-26 15:34 | 41.30146 | -1.45909 | 35147 ft | 475 kts | 223° |
| 2026-04-26 15:35 | 41.25235 | -1.51758 | 35156 ft | 475 kts | 223° |
| 2026-04-26 15:35 | 41.20308 | -1.57614 | 35160 ft | 475 kts | 223° |
| 2026-04-26 15:36 | 41.15364 | -1.63477 | 35166 ft | 476 kts | 223° |
| 2026-04-26 15:36 | 41.10450 | -1.69293 | 35173 ft | 475 kts | 222° |
| 2026-04-26 15:37 | 41.05551 | -1.75079 | 35177 ft | 475 kts | 222° |
| 2026-04-26 15:37 | 41.00626 | -1.80882 | 35187 ft | 472 kts | 222° |
| 2026-04-26 15:38 | 40.95723 | -1.86646 | 35190 ft | 473 kts | 222° |
| 2026-04-26 15:38 | 40.90821 | -1.92397 | 35184 ft | 474 kts | 222° |
| 2026-04-26 15:39 | 40.85980 | -1.98065 | 35186 ft | 474 kts | 222° |
| 2026-04-26 15:39 | 40.81844 | -2.02899 | 35184 ft | 476 kts | 222° |
| 2026-04-26 15:40 | 40.76073 | -2.09628 | 35186 ft | 476 kts | 222° |
| 2026-04-26 15:40 | 40.71127 | -2.15381 | 35182 ft | 476 kts | 222° |
| 2026-04-26 15:41 | 40.66154 | -2.21143 | 35177 ft | 477 kts | 222° |
| 2026-04-26 15:41 | 40.61185 | -2.26888 | 35172 ft | 477 kts | 222° |
| 2026-04-26 15:42 | 40.56193 | -2.32648 | 35166 ft | 479 kts | 222° |
| 2026-04-26 15:42 | 40.51165 | -2.38439 | 35160 ft | 479 kts | 222° |
| 2026-04-26 15:43 | 40.46147 | -2.44205 | 35156 ft | 480 kts | 222° |
| 2026-04-26 15:44 | 40.38976 | -2.53281 | 35143 ft | 479 kts | 235° |
| 2026-04-26 15:44 | 40.35858 | -2.60888 | 35142 ft | 477 kts | 252° |
| 2026-04-26 15:44 | 40.34903 | -2.64965 | 35146 ft | 476 kts | 255° |
| 2026-04-26 15:45 | 40.32183 | -2.77561 | 35144 ft | 477 kts | 255° |
| 2026-04-26 15:46 | 40.29472 | -2.90017 | 35134 ft | 477 kts | 255° |
| 2026-04-26 15:46 | 40.27957 | -2.96933 | 35128 ft | 476 kts | 255° |
| 2026-04-26 15:47 | 40.24898 | -3.10817 | 35121 ft | 477 kts | 255° |
| 2026-04-26 15:48 | 40.23040 | -3.19182 | 35123 ft | 479 kts | 255° |
| 2026-04-26 15:48 | 40.21192 | -3.27488 | 35125 ft | 477 kts | 255° |
| 2026-04-26 15:49 | 40.19342 | -3.35786 | 35123 ft | 477 kts | 255° |
| 2026-04-26 15:49 | 40.17487 | -3.44070 | 35129 ft | 476 kts | 255° |
| 2026-04-26 15:50 | 40.15622 | -3.52374 | 35127 ft | 476 kts | 255° |
| 2026-04-26 15:50 | 40.13764 | -3.60609 | 35123 ft | 476 kts | 255° |
| 2026-04-26 15:51 | 40.11896 | -3.68863 | 35118 ft | 476 kts | 254° |
| 2026-04-26 15:51 | 40.10008 | -3.77166 | 35108 ft | 476 kts | 254° |
| 2026-04-26 15:52 | 40.08113 | -3.85464 | 35099 ft | 477 kts | 254° |
| 2026-04-26 15:52 | 40.06231 | -3.93669 | 35097 ft | 476 kts | 254° |
| 2026-04-26 15:53 | 40.04328 | -4.01941 | 35091 ft | 475 kts | 254° |
| 2026-04-26 15:53 | 40.02429 | -4.10164 | 35084 ft | 475 kts | 254° |
| 2026-04-26 15:54 | 40.00516 | -4.18416 | 35079 ft | 475 kts | 254° |
| 2026-04-26 15:54 | 39.98613 | -4.26602 | 35086 ft | 476 kts | 254° |
| 2026-04-26 15:55 | 39.96692 | -4.34839 | 35073 ft | 476 kts | 255° |
| 2026-04-26 15:55 | 39.94997 | -4.43162 | 35076 ft | 476 kts | 256° |
| 2026-04-26 15:56 | 39.93326 | -4.51485 | 35076 ft | 476 kts | 256° |
| 2026-04-26 15:56 | 39.91637 | -4.59814 | 35067 ft | 476 kts | 257° |
| 2026-04-26 15:57 | 39.89941 | -4.68117 | 35074 ft | 476 kts | 256° |
| 2026-04-26 15:57 | 39.88238 | -4.76418 | 35066 ft | 477 kts | 256° |
| 2026-04-26 15:58 | 39.86520 | -4.84747 | 35069 ft | 477 kts | 256° |
| 2026-04-26 15:58 | 39.84804 | -4.93028 | 35068 ft | 477 kts | 256° |
| 2026-04-26 15:59 | 39.83073 | -5.01348 | 35067 ft | 476 kts | 256° |
| 2026-04-26 15:59 | 39.81347 | -5.09616 | 35064 ft | 477 kts | 256° |
| 2026-04-26 16:00 | 39.79606 | -5.17919 | 35056 ft | 478 kts | 256° |
| 2026-04-26 16:00 | 39.77863 | -5.26196 | 35048 ft | 477 kts | 256° |
| 2026-04-26 16:01 | 39.76113 | -5.34477 | 35050 ft | 476 kts | 256° |
| 2026-04-26 16:01 | 39.74360 | -5.42741 | 35055 ft | 476 kts | 256° |
| 2026-04-26 16:02 | 39.72596 | -5.51026 | 35064 ft | 476 kts | 256° |
| 2026-04-26 16:02 | 39.70832 | -5.59276 | 35057 ft | 475 kts | 257° |
| 2026-04-26 16:03 | 39.69077 | -5.67460 | 35060 ft | 475 kts | 256° |
| 2026-04-26 16:03 | 39.67299 | -5.75714 | 35054 ft | 475 kts | 256° |
| 2026-04-26 16:04 | 39.65518 | -5.83955 | 35052 ft | 475 kts | 256° |
| 2026-04-26 16:04 | 39.63739 | -5.92148 | 35051 ft | 474 kts | 256° |
| 2026-04-26 16:05 | 39.61948 | -6.00375 | 35045 ft | 472 kts | 256° |
| 2026-04-26 16:05 | 39.60158 | -6.08561 | 35043 ft | 474 kts | 256° |
| 2026-04-26 16:06 | 39.58372 | -6.16699 | 35041 ft | 472 kts | 256° |
| 2026-04-26 16:06 | 39.56571 | -6.24873 | 35047 ft | 472 kts | 256° |
| 2026-04-26 16:07 | 39.54769 | -6.33025 | 35045 ft | 472 kts | 256° |
| 2026-04-26 16:07 | 39.52961 | -6.41153 | 35039 ft | 472 kts | 254° |
| 2026-04-26 16:08 | 39.50328 | -6.48929 | 35042 ft | 474 kts | 245° |
| 2026-04-26 16:08 | 39.47382 | -6.56529 | 35041 ft | 473 kts | 245° |
| 2026-04-26 16:09 | 39.44434 | -6.64109 | 35037 ft | 473 kts | 245° |
| 2026-04-26 16:09 | 39.41479 | -6.71683 | 35038 ft | 472 kts | 244° |
| 2026-04-26 16:10 | 39.38538 | -6.79202 | 35036 ft | 471 kts | 244° |
| 2026-04-26 16:10 | 39.35565 | -6.86783 | 35030 ft | 471 kts | 244° |
| 2026-04-26 16:11 | 39.32609 | -6.94304 | 35029 ft | 471 kts | 244° |
| 2026-04-26 16:11 | 39.29660 | -7.01786 | 35026 ft | 472 kts | 244° |
| 2026-04-26 16:12 | 39.26668 | -7.09359 | 35034 ft | 472 kts | 244° |
| 2026-04-26 16:12 | 39.22185 | -7.20673 | 35043 ft | 482 kts | 244° |
| 2026-04-26 16:13 | 39.19094 | -7.28448 | 35046 ft | 495 kts | 244° |
| 2026-04-26 16:13 | 39.15919 | -7.36414 | 35033 ft | 501 kts | 244° |
| 2026-04-26 16:14 | 39.12741 | -7.44364 | 35026 ft | 501 kts | 244° |
| 2026-04-26 16:15 | 39.07955 | -7.56301 | 35010 ft | 494 kts | 244° |
| 2026-04-26 16:15 | 39.06421 | -7.60116 | 35002 ft | 478 kts | 244° |
| 2026-04-26 16:15 | 39.04906 | -7.63878 | 34918 ft | 465 kts | 244° |
| 2026-04-26 16:16 | 39.02078 | -7.71157 | 34206 ft | 451 kts | 245° |
| 2026-04-26 16:16 | 39.00705 | -7.74787 | 33583 ft | 449 kts | 245° |
| 2026-04-26 16:16 | 38.99357 | -7.78337 | 32695 ft | 444 kts | 245° |
| 2026-04-26 16:16 | 38.98011 | -7.81877 | 31815 ft | 439 kts | 245° |
| 2026-04-26 16:17 | 38.96687 | -7.85350 | 30980 ft | 434 kts | 245° |
| 2026-04-26 16:17 | 38.95369 | -7.88801 | 30148 ft | 429 kts | 245° |
| 2026-04-26 16:17 | 38.94062 | -7.92220 | 29312 ft | 425 kts | 245° |
| 2026-04-26 16:17 | 38.92775 | -7.95579 | 28490 ft | 421 kts | 245° |
| 2026-04-26 16:18 | 38.91495 | -7.98915 | 27663 ft | 418 kts | 245° |
| 2026-04-26 16:18 | 38.88261 | -8.05034 | 26039 ft | 411 kts | 231° |
| 2026-04-26 16:19 | 38.84677 | -8.10579 | 24474 ft | 404 kts | 231° |
| 2026-04-26 16:19 | 38.82882 | -8.13348 | 23658 ft | 400 kts | 231° |
| 2026-04-26 16:19 | 38.79962 | -8.17849 | 22342 ft | 395 kts | 230° |
| 2026-04-26 16:20 | 38.77637 | -8.21428 | 21338 ft | 390 kts | 230° |
| 2026-04-26 16:20 | 38.74214 | -8.26690 | 19911 ft | 382 kts | 230° |
| 2026-04-26 16:20 | 38.72538 | -8.29264 | 19191 ft | 379 kts | 230° |
| 2026-04-26 16:21 | 38.70858 | -8.31841 | 18471 ft | 376 kts | 230° |
| 2026-04-26 16:21 | 38.69198 | -8.34385 | 17786 ft | 372 kts | 230° |
| 2026-04-26 16:21 | 38.67540 | -8.36926 | 17062 ft | 370 kts | 230° |
| 2026-04-26 16:21 | 38.65919 | -8.39405 | 16381 ft | 366 kts | 230° |
| 2026-04-26 16:22 | 38.64289 | -8.41899 | 15709 ft | 363 kts | 230° |
| 2026-04-26 16:22 | 38.62683 | -8.44353 | 15036 ft | 360 kts | 230° |
| 2026-04-26 16:22 | 38.61082 | -8.46798 | 14510 ft | 359 kts | 229° |
| 2026-04-26 16:22 | 38.59481 | -8.49240 | 14097 ft | 357 kts | 229° |
| 2026-04-26 16:23 | 38.57906 | -8.51641 | 13761 ft | 353 kts | 229° |
| 2026-04-26 16:23 | 38.56337 | -8.54032 | 13425 ft | 353 kts | 229° |
| 2026-04-26 16:23 | 38.54766 | -8.56423 | 13097 ft | 352 kts | 229° |
| 2026-04-26 16:23 | 38.53184 | -8.58783 | 12781 ft | 349 kts | 228° |
| 2026-04-26 16:24 | 38.51597 | -8.61105 | 12432 ft | 345 kts | 228° |
| 2026-04-26 16:24 | 38.50017 | -8.63416 | 12079 ft | 343 kts | 228° |
| 2026-04-26 16:24 | 38.48444 | -8.65719 | 11686 ft | 341 kts | 227° |
| 2026-04-26 16:24 | 38.46941 | -8.67924 | 11645 ft | 326 kts | 227° |
| 2026-04-26 16:25 | 38.45483 | -8.70062 | 11630 ft | 312 kts | 227° |
| 2026-04-26 16:25 | 38.44091 | -8.72100 | 11552 ft | 301 kts | 227° |
| 2026-04-26 16:25 | 38.42720 | -8.74106 | 11258 ft | 299 kts | 227° |
| 2026-04-26 16:25 | 38.41352 | -8.76108 | 10885 ft | 300 kts | 227° |
| 2026-04-26 16:26 | 38.39972 | -8.78125 | 10495 ft | 300 kts | 227° |
| 2026-04-26 16:26 | 38.39059 | -8.79459 | 10250 ft | 300 kts | 227° |
| 2026-04-26 16:26 | 38.37243 | -8.82111 | 9746 ft | 301 kts | 226° |
| 2026-04-26 16:26 | 38.35870 | -8.84114 | 9326 ft | 304 kts | 227° |
| 2026-04-26 16:27 | 38.34584 | -8.86282 | 8868 ft | 307 kts | 244° |
| 2026-04-26 16:27 | 38.34029 | -8.88851 | 8482 ft | 305 kts | 269° |
| 2026-04-26 16:27 | 38.34350 | -8.91459 | 8150 ft | 298 kts | 296° |
| 2026-04-26 16:27 | 38.35464 | -8.93606 | 7817 ft | 288 kts | 317° |
| 2026-04-26 16:28 | 38.36901 | -8.95395 | 7468 ft | 286 kts | 321° |
| 2026-04-26 16:28 | 38.38339 | -8.97117 | 7118 ft | 286 kts | 320° |
| 2026-04-26 16:28 | 38.39766 | -8.98847 | 6971 ft | 275 kts | 320° |
| 2026-04-26 16:28 | 38.41003 | -9.00591 | 6964 ft | 263 kts | 313° |
| 2026-04-26 16:29 | 38.42141 | -9.02424 | 6708 ft | 259 kts | 312° |
| 2026-04-26 16:29 | 38.43227 | -9.04200 | 6450 ft | 252 kts | 312° |
| 2026-04-26 16:29 | 38.44298 | -9.05943 | 6251 ft | 249 kts | 311° |
| 2026-04-26 16:29 | 38.45367 | -9.07681 | 6225 ft | 244 kts | 312° |
| 2026-04-26 16:30 | 38.46371 | -9.09319 | 6128 ft | 227 kts | 312° |
| 2026-04-26 16:30 | 38.47304 | -9.10841 | 6031 ft | 210 kts | 313° |
| 2026-04-26 16:30 | 38.48173 | -9.12255 | 5938 ft | 196 kts | 313° |
| 2026-04-26 16:30 | 38.49006 | -9.13607 | 5670 ft | 193 kts | 313° |
| 2026-04-26 16:31 | 38.49831 | -9.14949 | 5364 ft | 192 kts | 313° |
| 2026-04-26 16:31 | 38.50640 | -9.16268 | 5085 ft | 190 kts | 313° |
| 2026-04-26 16:31 | 38.51461 | -9.17606 | 4783 ft | 188 kts | 313° |
| 2026-04-26 16:31 | 38.52259 | -9.18908 | 4496 ft | 186 kts | 312° |
| 2026-04-26 16:32 | 38.53086 | -9.20159 | 4193 ft | 183 kts | 324° |
| 2026-04-26 16:32 | 38.53770 | -9.20746 | 4029 ft | 174 kts | 340° |
| 2026-04-26 16:32 | 38.55257 | -9.21565 | 3981 ft | 170 kts | 341° |
| 2026-04-26 16:32 | 38.56335 | -9.22143 | 4013 ft | 166 kts | 341° |
| 2026-04-26 16:33 | 38.57399 | -9.22709 | 3997 ft | 164 kts | 342° |
| 2026-04-26 16:33 | 38.58443 | -9.23265 | 3994 ft | 164 kts | 342° |
| 2026-04-26 16:33 | 38.59517 | -9.23767 | 3965 ft | 163 kts | 354° |
| 2026-04-26 16:33 | 38.60592 | -9.23472 | 3723 ft | 158 kts | 38° |
| 2026-04-26 16:34 | 38.61328 | -9.22444 | 3520 ft | 157 kts | 40° |
| 2026-04-26 16:34 | 38.62307 | -9.21899 | 3329 ft | 156 kts | 19° |
| 2026-04-26 16:34 | 38.63335 | -9.21444 | 3126 ft | 155 kts | 23° |
| 2026-04-26 16:34 | 38.64334 | -9.20913 | 2925 ft | 155 kts | 24° |
| 2026-04-26 16:35 | 38.65319 | -9.20389 | 2725 ft | 154 kts | 23° |
| 2026-04-26 16:35 | 38.66340 | -9.20033 | 2594 ft | 152 kts | 356° |
| 2026-04-26 16:35 | 38.67284 | -9.20682 | 2706 ft | 169 kts | 309° |
| 2026-04-26 16:35 | 38.67602 | -9.22127 | 3120 ft | 177 kts | 270° |
| 2026-04-26 16:36 | 38.67126 | -9.23557 | 3026 ft | 176 kts | 227° |
| 2026-04-26 16:36 | 38.66053 | -9.24250 | 2627 ft | 179 kts | 183° |
| 2026-04-26 16:36 | 38.64888 | -9.23856 | 2212 ft | 176 kts | 139° |
| 2026-04-26 16:36 | 38.64291 | -9.22610 | 1998 ft | 163 kts | 91° |
| 2026-04-26 16:37 | 38.64541 | -9.21238 | 1985 ft | 160 kts | 55° |
| 2026-04-26 16:37 | 38.65333 | -9.20316 | 1980 ft | 154 kts | 24° |
| 2026-04-26 16:37 | 38.66331 | -9.19831 | 1986 ft | 152 kts | 20° |
| 2026-04-26 16:37 | 38.67317 | -9.19332 | 1984 ft | 152 kts | 22° |
| 2026-04-26 16:38 | 38.68291 | -9.18814 | 1993 ft | 152 kts | 22° |
| 2026-04-26 16:38 | 38.69266 | -9.18299 | 1886 ft | 154 kts | 21° |
| 2026-04-26 16:38 | 38.70239 | -9.17783 | 1694 ft | 151 kts | 22° |
| 2026-04-26 16:38 | 38.71213 | -9.17265 | 1498 ft | 150 kts | 21° |
| 2026-04-26 16:39 | 38.72177 | -9.16753 | 1306 ft | 150 kts | 21° |
| 2026-04-26 16:39 | 38.73149 | -9.16236 | 1116 ft | 151 kts | 21° |
| 2026-04-26 16:39 | 38.74137 | -9.15725 | 913 ft | 153 kts | 20° |
| 2026-04-26 16:39 | 38.75118 | -9.15188 | 725 ft | 154 kts | 20° |
| 2026-04-26 16:40 | 38.76104 | -9.14687 | 530 ft | 154 kts | 22° |
| 2026-04-26 16:40 | 38.77083 | -9.14147 | 392 ft | 143 kts | 20° |
| 2026-04-26 16:40 | 38.77885 | -9.13724 | 383 ft | 102 kts | 22° |
| 2026-04-26 16:40 | 38.78336 | -9.13480 | 383 ft | 38 kts | 22° |
| 2026-04-26 16:41 | 38.78487 | -9.13400 | 383 ft | 14 kts | 22° |
| 2026-04-26 16:41 | 38.78533 | -9.13345 | 383 ft | 8 kts | 74° |
| 2026-04-26 16:41 | 38.78531 | -9.13286 | 383 ft | 6 kts | 114° |
| 2026-04-26 16:41 | 38.78501 | -9.13247 | 383 ft | 5 kts | 149° |
| 2026-04-26 16:42 | 38.78464 | -9.13228 | 383 ft | 5 kts | 163° |
| 2026-04-26 16:42 | 38.78426 | -9.13219 | 383 ft | 6 kts | 178° |
| 2026-04-26 16:42 | 38.78374 | -9.13231 | 383 ft | 9 kts | 199° |
| 2026-04-26 16:42 | 38.78306 | -9.13267 | 383 ft | 11 kts | 203° |
| 2026-04-26 16:43 | 38.78234 | -9.13307 | 383 ft | 10 kts | 204° |
| 2026-04-26 16:43 | 38.78169 | -9.13343 | 383 ft | 9 kts | 203° |
| 2026-04-26 16:43 | 38.78108 | -9.13376 | 383 ft | 9 kts | 202° |
| 2026-04-26 16:43 | 38.78041 | -9.13411 | 383 ft | 12 kts | 202° |
| 2026-04-26 16:44 | 38.77944 | -9.13462 | 383 ft | 17 kts | 202° |
| 2026-04-26 16:44 | 38.77819 | -9.13529 | 383 ft | 19 kts | 203° |
| 2026-04-26 16:44 | 38.77702 | -9.13588 | 383 ft | 17 kts | 192° |
| 2026-04-26 16:44 | 38.77591 | -9.13581 | 383 ft | 15 kts | 168° |
| 2026-04-26 16:45 | 38.77491 | -9.13553 | 383 ft | 13 kts | 168° |
| 2026-04-26 16:45 | 38.77401 | -9.13528 | 383 ft | 12 kts | 168° |
| 2026-04-26 16:45 | 38.77319 | -9.13523 | 383 ft | 11 kts | 207° |
| 2026-04-26 16:45 | 38.77274 | -9.13633 | 383 ft | 17 kts | 257° |
| 2026-04-26 16:46 | 38.77248 | -9.13782 | 383 ft | 16 kts | 249° |
| 2026-04-26 16:46 | 38.77174 | -9.13877 | 383 ft | 14 kts | 203° |
| 2026-04-26 16:46 | 38.77080 | -9.13892 | 383 ft | 13 kts | 173° |
| 2026-04-26 16:46 | 38.77009 | -9.13873 | 383 ft | 3 kts | 171° |
| 2026-04-26 16:47 | 38.76982 | -9.13867 | 383 ft | 4 kts | 171° |
| 2026-04-26 16:47 | 38.76942 | -9.13849 | 383 ft | 7 kts | 142° |
| 2026-04-26 16:47 | 38.76932 | -9.13794 | 383 ft | 6 kts | 79° |
| 2026-04-26 16:47 | 38.76937 | -9.13760 | 383 ft | 1 kts | 79° |
| 2026-04-26 16:48 | 38.76938 | -9.13756 | 383 ft | 0 kts | 79° |